Akutan, Alaska
Current Conditions -  °F | °C
As of 5:15 PM on Saturday 25 Oct 2014 (Local Time) from PAUT Reporting Station
Broken Clouds Broken Clouds  
Wind Chill: 37°   Ceiling: 2700
Heat Index: 44°   Visibility: 10mi
Dew Point: 35°   Wind: 15mph
Humidity: 72%   Direction: 300°WNW
Pressure: 29.93"   Gusts: NA
Location:  54.14°N, 165.77°W
Report Text: PAUT 260115Z AUTO 30013KT 10SM BKN027 07/02 A2993 RMK AO2 T00660018
Loading
Personal Weather Stations






























Interactive Weather Map
Tropical Storm Tracking
New forecast layout! Learn more

10-Day Weather Forecast

Advertisements
Track Severe Weather on mobile